sensor_id;sensor_type;location;lat;lon;timestamp;P1;durP1;ratioP1;P2;durP2;ratioP2
75413;SDS011;64758;52.122;5.404;2023-01-01T00:02:00;20.50;;;10.40;;
75413;SDS011;64758;52.122;5.404;2023-01-01T00:04:27;17.23;;;9.40;;
75413;SDS011;64758;52.122;5.404;2023-01-01T00:06:54;24.80;;;10.03;;
75413;SDS011;64758;52.122;5.404;2023-01-01T00:09:20;14.82;;;10.10;;
75413;SDS011;64758;52.122;5.404;2023-01-01T00:12:05;16.95;;;9.65;;
75413;SDS011;64758;52.122;5.404;2023-01-01T00:14:32;15.77;;;9.50;;
75413;SDS011;64758;52.122;5.404;2023-01-01T00:16:58;15.95;;;10.10;;
75413;SDS011;64758;52.122;5.404;2023-01-01T00:19:25;18.67;;;11.50;;
75413;SDS011;64758;52.122;5.404;2023-01-01T00:21:51;17.17;;;10.95;;
75413;SDS011;64758;52.122;5.404;2023-01-01T00:24:19;21.90;;;10.75;;
75413;SDS011;64758;52.122;5.404;2023-01-01T00:26:45;17.95;;;11.48;;
75413;SDS011;64758;52.122;5.404;2023-01-01T00:29:12;21.60;;;10.75;;
75413;SDS011;64758;52.122;5.404;2023-01-01T00:31:38;19.90;;;10.93;;
75413;SDS011;64758;52.122;5.404;2023-01-01T00:34:05;19.13;;;10.40;;
75413;SDS011;64758;52.122;5.404;2023-01-01T00:36:31;22.05;;;10.88;;
75413;SDS011;64758;52.122;5.404;2023-01-01T00:38:58;17.67;;;9.23;;
75413;SDS011;64758;52.122;5.404;2023-01-01T00:41:27;20.73;;;10.05;;
75413;SDS011;64758;52.122;5.404;2023-01-01T00:43:53;21.93;;;9.00;;
75413;SDS011;64758;52.122;5.404;2023-01-01T00:46:19;18.25;;;8.75;;
75413;SDS011;64758;52.122;5.404;2023-01-01T00:48:46;14.25;;;8.77;;
75413;SDS011;64758;52.122;5.404;2023-01-01T00:51:13;14.40;;;7.63;;
75413;SDS011;64758;52.122;5.404;2023-01-01T00:53:39;13.80;;;6.32;;
75413;SDS011;64758;52.122;5.404;2023-01-01T00:56:06;8.03;;;6.67;;
75413;SDS011;64758;52.122;5.404;2023-01-01T00:58:32;14.20;;;6.43;;
75413;SDS011;64758;52.122;5.404;2023-01-01T01:00:59;16.00;;;5.72;;
75413;SDS011;64758;52.122;5.404;2023-01-01T01:03:26;15.77;;;5.18;;
75413;SDS011;64758;52.122;5.404;2023-01-01T01:08:29;7.53;;;4.20;;
75413;SDS011;64758;52.122;5.404;2023-01-01T01:11:08;7.78;;;4.05;;
75413;SDS011;64758;52.122;5.404;2023-01-01T01:13:46;11.45;;;3.88;;
75413;SDS011;64758;52.122;5.404;2023-01-01T01:16:16;11.57;;;3.78;;
75413;SDS011;64758;52.122;5.404;2023-01-01T01:18:51;10.93;;;3.03;;
75413;SDS011;64758;52.122;5.404;2023-01-01T01:21:20;5.80;;;2.53;;
75413;SDS011;64758;52.122;5.404;2023-01-01T01:23:47;10.02;;;3.15;;
75413;SDS011;64758;52.122;5.404;2023-01-01T01:26:16;9.07;;;3.33;;
75413;SDS011;64758;52.122;5.404;2023-01-01T01:28:45;8.60;;;2.80;;
75413;SDS011;64758;52.122;5.404;2023-01-01T01:31:15;9.57;;;2.53;;
75413;SDS011;64758;52.122;5.404;2023-01-01T01:33:43;9.43;;;2.47;;
75413;SDS011;64758;52.122;5.404;2023-01-01T01:36:11;8.80;;;2.33;;
75413;SDS011;64758;52.122;5.404;2023-01-01T01:38:38;6.50;;;2.60;;
75413;SDS011;64758;52.122;5.404;2023-01-01T01:41:05;6.35;;;2.45;;
75413;SDS011;64758;52.122;5.404;2023-01-01T01:46:00;7.53;;;1.80;;
75413;SDS011;64758;52.122;5.404;2023-01-01T01:48:38;6.18;;;1.90;;
75413;SDS011;64758;52.122;5.404;2023-01-01T01:51:08;9.80;;;2.00;;
75413;SDS011;64758;52.122;5.404;2023-01-01T01:53:38;6.68;;;1.75;;
75413;SDS011;64758;52.122;5.404;2023-01-01T01:56:11;7.07;;;3.03;;
75413;SDS011;64758;52.122;5.404;2023-01-01T01:58:40;7.93;;;1.90;;
75413;SDS011;64758;52.122;5.404;2023-01-01T02:01:07;5.32;;;1.67;;
75413;SDS011;64758;52.122;5.404;2023-01-01T02:03:45;8.48;;;2.00;;
75413;SDS011;64758;52.122;5.404;2023-01-01T02:06:18;6.50;;;1.92;;
75413;SDS011;64758;52.122;5.404;2023-01-01T02:08:45;6.47;;;2.22;;
75413;SDS011;64758;52.122;5.404;2023-01-01T02:11:12;6.37;;;1.73;;
75413;SDS011;64758;52.122;5.404;2023-01-01T02:13:46;4.40;;;1.80;;
75413;SDS011;64758;52.122;5.404;2023-01-01T02:16:19;5.80;;;1.65;;
75413;SDS011;64758;52.122;5.404;2023-01-01T02:21:23;6.97;;;1.85;;
75413;SDS011;64758;52.122;5.404;2023-01-01T02:29:21;7.18;;;1.60;;
75413;SDS011;64758;52.122;5.404;2023-01-01T02:31:57;4.22;;;1.50;;
75413;SDS011;64758;52.122;5.404;2023-01-01T02:34:31;7.72;;;1.90;;
75413;SDS011;64758;52.122;5.404;2023-01-01T02:37:03;3.93;;;1.50;;
75413;SDS011;64758;52.122;5.404;2023-01-01T02:39:32;12.35;;;1.83;;
75413;SDS011;64758;52.122;5.404;2023-01-01T02:42:03;7.45;;;1.40;;
75413;SDS011;64758;52.122;5.404;2023-01-01T02:44:34;5.93;;;1.60;;
75413;SDS011;64758;52.122;5.404;2023-01-01T02:47:06;5.60;;;1.63;;
75413;SDS011;64758;52.122;5.404;2023-01-01T02:49:36;6.07;;;1.20;;
75413;SDS011;64758;52.122;5.404;2023-01-01T02:52:10;4.78;;;1.30;;
75413;SDS011;64758;52.122;5.404;2023-01-01T02:57:34;5.53;;;1.55;;
75413;SDS011;64758;52.122;5.404;2023-01-01T03:00:07;9.40;;;1.40;;
75413;SDS011;64758;52.122;5.404;2023-01-01T03:02:49;4.10;;;1.03;;
75413;SDS011;64758;52.122;5.404;2023-01-01T03:05:41;7.22;;;1.70;;
75413;SDS011;64758;52.122;5.404;2023-01-01T03:11:43;4.72;;;1.00;;
75413;SDS011;64758;52.122;5.404;2023-01-01T03:16:55;3.20;;;0.90;;
75413;SDS011;64758;52.122;5.404;2023-01-01T03:19:29;5.60;;;1.80;;
75413;SDS011;64758;52.122;5.404;2023-01-01T03:22:02;5.43;;;1.00;;
75413;SDS011;64758;52.122;5.404;2023-01-01T03:25:06;5.25;;;0.75;;
75413;SDS011;64758;52.122;5.404;2023-01-01T03:27:30;5.22;;;1.50;;
75413;SDS011;64758;52.122;5.404;2023-01-01T03:30:04;5.57;;;1.13;;
75413;SDS011;64758;52.122;5.404;2023-01-01T03:32:37;6.25;;;1.45;;
75413;SDS011;64758;52.122;5.404;2023-01-01T03:35:31;6.00;;;1.10;;
75413;SDS011;64758;52.122;5.404;2023-01-01T03:38:05;11.32;;;1.67;;
75413;SDS011;64758;52.122;5.404;2023-01-01T03:40:38;4.70;;;1.02;;
75413;SDS011;64758;52.122;5.404;2023-01-01T03:43:15;6.97;;;0.87;;
75413;SDS011;64758;52.122;5.404;2023-01-01T03:46:03;5.88;;;0.85;;
75413;SDS011;64758;52.122;5.404;2023-01-01T03:48:32;5.60;;;1.10;;
75413;SDS011;64758;52.122;5.404;2023-01-01T03:51:34;3.10;;;1.08;;
75413;SDS011;64758;52.122;5.404;2023-01-01T03:54:36;7.70;;;1.25;;
75413;SDS011;64758;52.122;5.404;2023-01-01T04:02:27;5.50;;;1.10;;
75413;SDS011;64758;52.122;5.404;2023-01-01T04:05:01;10.18;;;1.08;;
75413;SDS011;64758;52.122;5.404;2023-01-01T04:07:30;6.18;;;1.20;;
75413;SDS011;64758;52.122;5.404;2023-01-01T04:09:58;5.27;;;0.97;;
75413;SDS011;64758;52.122;5.404;2023-01-01T04:12:27;5.88;;;0.80;;
75413;SDS011;64758;52.122;5.404;2023-01-01T04:14:55;6.22;;;1.00;;
75413;SDS011;64758;52.122;5.404;2023-01-01T04:17:22;6.55;;;1.10;;
75413;SDS011;64758;52.122;5.404;2023-01-01T04:19:48;5.53;;;0.98;;
75413;SDS011;64758;52.122;5.404;2023-01-01T04:22:20;4.23;;;1.17;;
75413;SDS011;64758;52.122;5.404;2023-01-01T04:24:48;7.85;;;1.05;;
75413;SDS011;64758;52.122;5.404;2023-01-01T04:27:15;2.78;;;1.00;;
75413;SDS011;64758;52.122;5.404;2023-01-01T04:29:41;4.45;;;0.80;;
75413;SDS011;64758;52.122;5.404;2023-01-01T04:32:08;5.03;;;0.88;;
75413;SDS011;64758;52.122;5.404;2023-01-01T04:34:34;4.97;;;0.80;;
75413;SDS011;64758;52.122;5.404;2023-01-01T04:37:01;5.78;;;1.05;;
75413;SDS011;64758;52.122;5.404;2023-01-01T04:39:33;3.90;;;0.88;;
75413;SDS011;64758;52.122;5.404;2023-01-01T04:41:59;5.80;;;1.23;;
75413;SDS011;64758;52.122;5.404;2023-01-01T04:44:26;7.97;;;1.10;;
75413;SDS011;64758;52.122;5.404;2023-01-01T04:46:52;8.90;;;1.33;;
75413;SDS011;64758;52.122;5.404;2023-01-01T04:49:25;5.72;;;1.27;;
75413;SDS011;64758;52.122;5.404;2023-01-01T04:51:51;4.97;;;1.02;;
75413;SDS011;64758;52.122;5.404;2023-01-01T04:54:18;4.10;;;1.05;;
75413;SDS011;64758;52.122;5.404;2023-01-01T04:56:44;4.53;;;1.27;;
75413;SDS011;64758;52.122;5.404;2023-01-01T04:59:11;4.63;;;1.00;;
75413;SDS011;64758;52.122;5.404;2023-01-01T05:01:37;10.55;;;1.00;;
75413;SDS011;64758;52.122;5.404;2023-01-01T05:04:04;6.35;;;1.38;;
75413;SDS011;64758;52.122;5.404;2023-01-01T05:06:30;5.85;;;1.08;;
75413;SDS011;64758;52.122;5.404;2023-01-01T05:08:57;6.10;;;1.10;;
75413;SDS011;64758;52.122;5.404;2023-01-01T05:11:27;3.60;;;0.80;;
75413;SDS011;64758;52.122;5.404;2023-01-01T05:13:55;5.90;;;1.10;;
75413;SDS011;64758;52.122;5.404;2023-01-01T05:16:24;4.07;;;1.27;;
75413;SDS011;64758;52.122;5.404;2023-01-01T05:18:53;2.60;;;0.70;;
75413;SDS011;64758;52.122;5.404;2023-01-01T05:21:29;5.82;;;0.98;;
75413;SDS011;64758;52.122;5.404;2023-01-01T05:23:58;4.60;;;0.70;;
75413;SDS011;64758;52.122;5.404;2023-01-01T05:26:27;5.18;;;0.80;;
75413;SDS011;64758;52.122;5.404;2023-01-01T05:28:57;6.38;;;1.13;;
75413;SDS011;64758;52.122;5.404;2023-01-01T05:31:25;4.55;;;0.82;;
75413;SDS011;64758;52.122;5.404;2023-01-01T05:33:54;5.20;;;0.90;;
75413;SDS011;64758;52.122;5.404;2023-01-01T05:36:26;4.03;;;0.93;;
75413;SDS011;64758;52.122;5.404;2023-01-01T05:38:54;3.85;;;0.60;;
75413;SDS011;64758;52.122;5.404;2023-01-01T05:41:21;5.47;;;0.90;;
75413;SDS011;64758;52.122;5.404;2023-01-01T05:43:48;4.82;;;1.48;;
75413;SDS011;64758;52.122;5.404;2023-01-01T05:46:17;3.08;;;0.65;;
75413;SDS011;64758;52.122;5.404;2023-01-01T05:48:49;6.23;;;0.80;;
75413;SDS011;64758;52.122;5.404;2023-01-01T05:51:17;4.35;;;0.98;;
75413;SDS011;64758;52.122;5.404;2023-01-01T05:53:46;5.07;;;0.90;;
75413;SDS011;64758;52.122;5.404;2023-01-01T05:56:13;5.30;;;0.80;;
75413;SDS011;64758;52.122;5.404;2023-01-01T05:58:41;4.32;;;0.82;;
75413;SDS011;64758;52.122;5.404;2023-01-01T06:01:41;5.13;;;0.70;;
75413;SDS011;64758;52.122;5.404;2023-01-01T06:04:10;5.50;;;0.80;;
75413;SDS011;64758;52.122;5.404;2023-01-01T06:06:37;4.97;;;0.50;;
75413;SDS011;64758;52.122;5.404;2023-01-01T06:09:03;2.33;;;0.43;;
75413;SDS011;64758;52.122;5.404;2023-01-01T06:11:30;5.97;;;0.43;;
75413;SDS011;64758;52.122;5.404;2023-01-01T06:13:57;2.17;;;0.40;;
75413;SDS011;64758;52.122;5.404;2023-01-01T06:16:26;3.45;;;0.60;;
75413;SDS011;64758;52.122;5.404;2023-01-01T06:18:54;5.72;;;1.08;;
75413;SDS011;64758;52.122;5.404;2023-01-01T06:21:21;2.47;;;0.30;;
75413;SDS011;64758;52.122;5.404;2023-01-01T06:23:49;1.73;;;0.35;;
75413;SDS011;64758;52.122;5.404;2023-01-01T06:26:16;2.67;;;0.57;;
75413;SDS011;64758;52.122;5.404;2023-01-01T06:28:45;3.40;;;0.40;;
75413;SDS011;64758;52.122;5.404;2023-01-01T06:31:14;3.78;;;0.50;;
75413;SDS011;64758;52.122;5.404;2023-01-01T06:33:43;4.55;;;0.50;;
75413;SDS011;64758;52.122;5.404;2023-01-01T06:36:10;6.15;;;0.40;;
75413;SDS011;64758;52.122;5.404;2023-01-01T06:38:40;2.33;;;0.33;;
75413;SDS011;64758;52.122;5.404;2023-01-01T06:41:12;4.30;;;0.50;;
75413;SDS011;64758;52.122;5.404;2023-01-01T06:43:40;1.85;;;0.40;;
75413;SDS011;64758;52.122;5.404;2023-01-01T06:48:40;1.42;;;0.30;;
75413;SDS011;64758;52.122;5.404;2023-01-01T06:51:08;5.97;;;0.63;;
75413;SDS011;64758;52.122;5.404;2023-01-01T06:53:37;4.40;;;0.30;;
75413;SDS011;64758;52.122;5.404;2023-01-01T06:56:04;3.65;;;0.32;;
75413;SDS011;64758;52.122;5.404;2023-01-01T06:58:31;2.83;;;0.30;;
75413;SDS011;64758;52.122;5.404;2023-01-01T07:06:37;4.50;;;0.45;;
75413;SDS011;64758;52.122;5.404;2023-01-01T07:09:04;3.20;;;0.40;;
75413;SDS011;64758;52.122;5.404;2023-01-01T07:11:32;3.60;;;0.38;;
75413;SDS011;64758;52.122;5.404;2023-01-01T07:13:59;3.33;;;0.30;;
75413;SDS011;64758;52.122;5.404;2023-01-01T07:16:26;2.87;;;0.30;;
75413;SDS011;64758;52.122;5.404;2023-01-01T07:18:52;2.08;;;0.30;;
75413;SDS011;64758;52.122;5.404;2023-01-01T07:21:33;5.13;;;0.30;;
75413;SDS011;64758;52.122;5.404;2023-01-01T07:24:09;4.32;;;0.30;;
75413;SDS011;64758;52.122;5.404;2023-01-01T07:26:38;3.25;;;0.20;;
75413;SDS011;64758;52.122;5.404;2023-01-01T07:29:06;4.77;;;0.30;;
75413;SDS011;64758;52.122;5.404;2023-01-01T07:31:36;1.65;;;0.30;;
75413;SDS011;64758;52.122;5.404;2023-01-01T07:34:04;2.03;;;0.40;;
75413;SDS011;64758;52.122;5.404;2023-01-01T07:36:32;2.60;;;0.30;;
75413;SDS011;64758;52.122;5.404;2023-01-01T07:38:59;4.25;;;0.38;;
75413;SDS011;64758;52.122;5.404;2023-01-01T07:41:25;3.57;;;0.30;;
75413;SDS011;64758;52.122;5.404;2023-01-01T07:43:52;3.72;;;0.30;;
75413;SDS011;64758;52.122;5.404;2023-01-01T07:46:18;2.00;;;0.32;;
75413;SDS011;64758;52.122;5.404;2023-01-01T07:48:45;2.00;;;0.30;;
75413;SDS011;64758;52.122;5.404;2023-01-01T07:51:12;5.68;;;0.40;;
75413;SDS011;64758;52.122;5.404;2023-01-01T07:53:38;3.37;;;0.27;;
75413;SDS011;64758;52.122;5.404;2023-01-01T07:56:05;2.60;;;0.20;;
75413;SDS011;64758;52.122;5.404;2023-01-01T07:58:32;1.92;;;0.20;;
75413;SDS011;64758;52.122;5.404;2023-01-01T08:00:58;5.18;;;0.30;;
75413;SDS011;64758;52.122;5.404;2023-01-01T08:03:25;2.95;;;0.45;;
75413;SDS011;64758;52.122;5.404;2023-01-01T08:05:52;3.50;;;0.33;;
75413;SDS011;64758;52.122;5.404;2023-01-01T08:08:18;3.55;;;0.35;;
75413;SDS011;64758;52.122;5.404;2023-01-01T08:10:45;1.95;;;0.30;;
75413;SDS011;64758;52.122;5.404;2023-01-01T08:13:11;4.63;;;0.70;;
75413;SDS011;64758;52.122;5.404;2023-01-01T08:15:38;2.88;;;0.22;;
75413;SDS011;64758;52.122;5.404;2023-01-01T08:18:04;1.40;;;0.20;;
75413;SDS011;64758;52.122;5.404;2023-01-01T08:20:31;2.97;;;0.22;;
75413;SDS011;64758;52.122;5.404;2023-01-01T08:22:58;2.08;;;0.30;;
75413;SDS011;64758;52.122;5.404;2023-01-01T08:25:32;2.50;;;0.50;;
75413;SDS011;64758;52.122;5.404;2023-01-01T08:27:59;4.93;;;0.32;;
75413;SDS011;64758;52.122;5.404;2023-01-01T08:30:25;1.87;;;0.20;;
75413;SDS011;64758;52.122;5.404;2023-01-01T08:32:52;4.57;;;0.30;;
75413;SDS011;64758;52.122;5.404;2023-01-01T08:35:19;2.40;;;0.30;;
75413;SDS011;64758;52.122;5.404;2023-01-01T08:37:45;9.20;;;0.45;;
75413;SDS011;64758;52.122;5.404;2023-01-01T08:40:12;2.47;;;0.40;;
75413;SDS011;64758;52.122;5.404;2023-01-01T08:42:39;2.63;;;0.40;;
75413;SDS011;64758;52.122;5.404;2023-01-01T08:45:05;2.97;;;0.30;;
75413;SDS011;64758;52.122;5.404;2023-01-01T08:47:32;2.20;;;0.30;;
75413;SDS011;64758;52.122;5.404;2023-01-01T08:49:59;5.80;;;0.43;;
75413;SDS011;64758;52.122;5.404;2023-01-01T08:52:26;4.00;;;0.50;;
75413;SDS011;64758;52.122;5.404;2023-01-01T08:54:52;4.17;;;0.40;;
75413;SDS011;64758;52.122;5.404;2023-01-01T08:57:19;4.78;;;0.45;;
75413;SDS011;64758;52.122;5.404;2023-01-01T08:59:45;5.05;;;0.40;;
75413;SDS011;64758;52.122;5.404;2023-01-01T09:02:12;5.82;;;0.32;;
75413;SDS011;64758;52.122;5.404;2023-01-01T09:04:38;4.57;;;0.40;;
75413;SDS011;64758;52.122;5.404;2023-01-01T09:07:05;6.20;;;0.47;;
75413;SDS011;64758;52.122;5.404;2023-01-01T09:09:31;3.03;;;0.35;;
75413;SDS011;64758;52.122;5.404;2023-01-01T09:11:58;5.65;;;0.40;;
75413;SDS011;64758;52.122;5.404;2023-01-01T09:14:32;2.35;;;0.68;;
75413;SDS011;64758;52.122;5.404;2023-01-01T09:16:58;4.43;;;0.47;;
75413;SDS011;64758;52.122;5.404;2023-01-01T09:19:25;4.70;;;0.43;;
75413;SDS011;64758;52.122;5.404;2023-01-01T09:21:52;7.00;;;0.45;;
75413;SDS011;64758;52.122;5.404;2023-01-01T09:24:19;7.43;;;0.65;;
75413;SDS011;64758;52.122;5.404;2023-01-01T09:26:46;6.13;;;0.30;;
75413;SDS011;64758;52.122;5.404;2023-01-01T09:29:12;7.20;;;0.60;;
75413;SDS011;64758;52.122;5.404;2023-01-01T09:31:43;6.00;;;0.40;;
75413;SDS011;64758;52.122;5.404;2023-01-01T09:34:10;2.95;;;0.40;;
75413;SDS011;64758;52.122;5.404;2023-01-01T09:36:37;2.53;;;0.60;;
75413;SDS011;64758;52.122;5.404;2023-01-01T09:39:04;6.22;;;0.38;;
75413;SDS011;64758;52.122;5.404;2023-01-01T09:44:15;6.73;;;0.40;;
75413;SDS011;64758;52.122;5.404;2023-01-01T09:46:57;5.88;;;0.50;;
75413;SDS011;64758;52.122;5.404;2023-01-01T09:49:30;3.17;;;0.65;;
75413;SDS011;64758;52.122;5.404;2023-01-01T09:52:03;8.38;;;0.65;;
75413;SDS011;64758;52.122;5.404;2023-01-01T09:54:37;4.50;;;0.52;;
75413;SDS011;64758;52.122;5.404;2023-01-01T09:57:10;3.53;;;0.40;;
75413;SDS011;64758;52.122;5.404;2023-01-01T09:59:45;5.57;;;0.63;;
75413;SDS011;64758;52.122;5.404;2023-01-01T10:13:22;6.93;;;0.43;;
75413;SDS011;64758;52.122;5.404;2023-01-01T10:15:57;5.25;;;0.40;;
75413;SDS011;64758;52.122;5.404;2023-01-01T10:18:30;3.17;;;0.30;;
75413;SDS011;64758;52.122;5.404;2023-01-01T10:23:45;6.53;;;0.73;;
75413;SDS011;64758;52.122;5.404;2023-01-01T10:26:17;6.63;;;0.50;;
75413;SDS011;64758;52.122;5.404;2023-01-01T10:31:17;7.65;;;0.30;;
75413;SDS011;64758;52.122;5.404;2023-01-01T10:33:46;4.72;;;0.60;;
75413;SDS011;64758;52.122;5.404;2023-01-01T10:36:14;8.23;;;1.03;;
75413;SDS011;64758;52.122;5.404;2023-01-01T10:38:44;7.68;;;0.95;;
75413;SDS011;64758;52.122;5.404;2023-01-01T10:41:11;3.00;;;0.40;;
75413;SDS011;64758;52.122;5.404;2023-01-01T10:43:45;4.13;;;0.47;;
75413;SDS011;64758;52.122;5.404;2023-01-01T10:46:14;5.38;;;0.57;;
75413;SDS011;64758;52.122;5.404;2023-01-01T10:51:29;5.85;;;1.17;;
75413;SDS011;64758;52.122;5.404;2023-01-01T10:53:56;8.20;;;0.70;;
75413;SDS011;64758;52.122;5.404;2023-01-01T10:56:23;5.15;;;0.75;;
75413;SDS011;64758;52.122;5.404;2023-01-01T10:58:54;6.93;;;0.50;;
75413;SDS011;64758;52.122;5.404;2023-01-01T11:01:24;8.17;;;0.77;;
75413;SDS011;64758;52.122;5.404;2023-01-01T11:06:34;7.18;;;0.60;;
75413;SDS011;64758;52.122;5.404;2023-01-01T11:09:03;9.05;;;0.77;;
75413;SDS011;64758;52.122;5.404;2023-01-01T11:11:54;7.38;;;0.50;;
75413;SDS011;64758;52.122;5.404;2023-01-01T11:14:31;6.60;;;0.63;;
75413;SDS011;64758;52.122;5.404;2023-01-01T11:17:03;6.75;;;0.77;;
75413;SDS011;64758;52.122;5.404;2023-01-01T11:19:34;7.28;;;0.60;;
75413;SDS011;64758;52.122;5.404;2023-01-01T11:22:03;5.97;;;0.50;;
75413;SDS011;64758;52.122;5.404;2023-01-01T11:24:31;5.05;;;0.82;;
75413;SDS011;64758;52.122;5.404;2023-01-01T11:27:15;5.70;;;0.80;;
75413;SDS011;64758;52.122;5.404;2023-01-01T11:29:45;6.40;;;0.73;;
75413;SDS011;64758;52.122;5.404;2023-01-01T11:32:16;5.03;;;0.85;;
75413;SDS011;64758;52.122;5.404;2023-01-01T11:34:46;5.32;;;0.77;;
75413;SDS011;64758;52.122;5.404;2023-01-01T11:37:25;5.15;;;0.70;;
75413;SDS011;64758;52.122;5.404;2023-01-01T11:39:55;5.87;;;1.27;;
75413;SDS011;64758;52.122;5.404;2023-01-01T11:42:27;3.08;;;0.70;;
75413;SDS011;64758;52.122;5.404;2023-01-01T11:45:38;11.35;;;1.15;;
75413;SDS011;64758;52.122;5.404;2023-01-01T11:47:51;5.68;;;0.80;;
75413;SDS011;64758;52.122;5.404;2023-01-01T11:50:24;4.53;;;1.30;;
75413;SDS011;64758;52.122;5.404;2023-01-01T11:52:55;6.00;;;0.80;;
75413;SDS011;64758;52.122;5.404;2023-01-01T12:00:45;8.13;;;0.90;;
75413;SDS011;64758;52.122;5.404;2023-01-01T12:08:49;6.45;;;0.73;;
75413;SDS011;64758;52.122;5.404;2023-01-01T12:11:25;7.22;;;0.90;;
75413;SDS011;64758;52.122;5.404;2023-01-01T12:19:47;7.43;;;0.90;;
75413;SDS011;64758;52.122;5.404;2023-01-01T12:22:35;8.10;;;1.50;;
75413;SDS011;64758;52.122;5.404;2023-01-01T12:25:01;7.32;;;1.52;;
75413;SDS011;64758;52.122;5.404;2023-01-01T12:27:46;7.55;;;1.65;;
75413;SDS011;64758;52.122;5.404;2023-01-01T12:30:44;7.93;;;1.20;;
75413;SDS011;64758;52.122;5.404;2023-01-01T12:45:18;11.75;;;1.17;;
75413;SDS011;64758;52.122;5.404;2023-01-01T12:51:29;6.38;;;0.90;;
75413;SDS011;64758;52.122;5.404;2023-01-01T12:59:38;9.50;;;1.00;;
75413;SDS011;64758;52.122;5.404;2023-01-01T13:02:11;5.10;;;0.80;;
75413;SDS011;64758;52.122;5.404;2023-01-01T13:04:43;11.13;;;1.00;;
75413;SDS011;64758;52.122;5.404;2023-01-01T13:07:12;4.05;;;1.02;;
75413;SDS011;64758;52.122;5.404;2023-01-01T13:09:41;11.63;;;1.48;;
75413;SDS011;64758;52.122;5.404;2023-01-01T13:12:11;5.85;;;0.60;;
75413;SDS011;64758;52.122;5.404;2023-01-01T13:14:41;5.73;;;0.63;;
75413;SDS011;64758;52.122;5.404;2023-01-01T13:17:19;5.78;;;0.90;;
75413;SDS011;64758;52.122;5.404;2023-01-01T13:20:00;7.18;;;0.93;;
75413;SDS011;64758;52.122;5.404;2023-01-01T13:22:41;6.40;;;2.10;;
75413;SDS011;64758;52.122;5.404;2023-01-01T13:38:46;8.55;;;1.10;;
75413;SDS011;64758;52.122;5.404;2023-01-01T13:55:21;8.97;;;0.87;;
75413;SDS011;64758;52.122;5.404;2023-01-01T14:00:54;8.50;;;1.52;;
75413;SDS011;64758;52.122;5.404;2023-01-01T14:03:39;5.53;;;0.90;;
75413;SDS011;64758;52.122;5.404;2023-01-01T14:06:10;10.45;;;0.95;;
75413;SDS011;64758;52.122;5.404;2023-01-01T14:08:41;7.43;;;0.70;;
75413;SDS011;64758;52.122;5.404;2023-01-01T14:11:18;8.57;;;1.10;;
75413;SDS011;64758;52.122;5.404;2023-01-01T14:13:46;9.63;;;0.95;;
75413;SDS011;64758;52.122;5.404;2023-01-01T14:16:13;9.43;;;1.15;;
75413;SDS011;64758;52.122;5.404;2023-01-01T14:18:45;4.60;;;0.60;;
75413;SDS011;64758;52.122;5.404;2023-01-01T14:21:16;9.87;;;1.00;;
75413;SDS011;64758;52.122;5.404;2023-01-01T14:23:47;5.78;;;1.00;;
75413;SDS011;64758;52.122;5.404;2023-01-01T14:26:17;12.05;;;0.98;;
75413;SDS011;64758;52.122;5.404;2023-01-01T14:28:46;9.88;;;0.98;;
75413;SDS011;64758;52.122;5.404;2023-01-01T14:33:44;7.73;;;0.80;;
75413;SDS011;64758;52.122;5.404;2023-01-01T14:38:50;9.35;;;1.25;;
75413;SDS011;64758;52.122;5.404;2023-01-01T14:44:10;9.50;;;1.50;;
75413;SDS011;64758;52.122;5.404;2023-01-01T14:46:40;10.57;;;1.50;;
75413;SDS011;64758;52.122;5.404;2023-01-01T14:49:09;12.32;;;1.38;;
75413;SDS011;64758;52.122;5.404;2023-01-01T14:51:40;6.85;;;1.38;;
75413;SDS011;64758;52.122;5.404;2023-01-01T14:54:15;7.55;;;1.50;;
75413;SDS011;64758;52.122;5.404;2023-01-01T14:56:48;5.55;;;1.05;;
75413;SDS011;64758;52.122;5.404;2023-01-01T14:59:26;5.23;;;1.00;;
75413;SDS011;64758;52.122;5.404;2023-01-01T15:02:02;13.13;;;1.15;;
75413;SDS011;64758;52.122;5.404;2023-01-01T15:04:39;11.65;;;1.75;;
75413;SDS011;64758;52.122;5.404;2023-01-01T15:07:16;5.20;;;1.23;;
75413;SDS011;64758;52.122;5.404;2023-01-01T15:09:52;8.30;;;1.15;;
75413;SDS011;64758;52.122;5.404;2023-01-01T15:12:20;7.50;;;1.10;;
75413;SDS011;64758;52.122;5.404;2023-01-01T15:14:48;10.73;;;1.27;;
75413;SDS011;64758;52.122;5.404;2023-01-01T15:17:17;8.77;;;2.65;;
75413;SDS011;64758;52.122;5.404;2023-01-01T15:20:05;10.98;;;2.13;;
75413;SDS011;64758;52.122;5.404;2023-01-01T15:22:44;9.98;;;1.58;;
75413;SDS011;64758;52.122;5.404;2023-01-01T15:25:12;9.60;;;1.30;;
75413;SDS011;64758;52.122;5.404;2023-01-01T15:27:39;4.82;;;1.58;;
75413;SDS011;64758;52.122;5.404;2023-01-01T15:30:06;7.82;;;1.17;;
75413;SDS011;64758;52.122;5.404;2023-01-01T15:32:47;3.40;;;1.00;;
75413;SDS011;64758;52.122;5.404;2023-01-01T15:35:21;7.07;;;1.05;;
75413;SDS011;64758;52.122;5.404;2023-01-01T15:37:58;13.17;;;1.77;;
75413;SDS011;64758;52.122;5.404;2023-01-01T15:40:29;11.75;;;2.97;;
75413;SDS011;64758;52.122;5.404;2023-01-01T15:47:56;6.63;;;2.30;;
75413;SDS011;64758;52.122;5.404;2023-01-01T15:53:20;9.45;;;2.63;;
75413;SDS011;64758;52.122;5.404;2023-01-01T16:01:02;13.07;;;3.53;;
75413;SDS011;64758;52.122;5.404;2023-01-01T16:03:31;13.57;;;4.43;;
75413;SDS011;64758;52.122;5.404;2023-01-01T16:06:01;11.45;;;5.10;;
75413;SDS011;64758;52.122;5.404;2023-01-01T16:08:28;15.10;;;4.95;;
75413;SDS011;64758;52.122;5.404;2023-01-01T16:10:54;10.43;;;2.90;;
75413;SDS011;64758;52.122;5.404;2023-01-01T16:13:21;9.48;;;3.15;;
75413;SDS011;64758;52.122;5.404;2023-01-01T16:15:57;9.30;;;2.03;;
75413;SDS011;64758;52.122;5.404;2023-01-01T16:18:36;9.70;;;2.08;;
75413;SDS011;64758;52.122;5.404;2023-01-01T16:21:03;8.65;;;2.25;;
75413;SDS011;64758;52.122;5.404;2023-01-01T16:23:30;10.43;;;2.20;;
75413;SDS011;64758;52.122;5.404;2023-01-01T16:25:57;6.38;;;2.08;;
75413;SDS011;64758;52.122;5.404;2023-01-01T16:28:23;12.87;;;4.83;;
75413;SDS011;64758;52.122;5.404;2023-01-01T16:30:50;8.95;;;3.97;;
75413;SDS011;64758;52.122;5.404;2023-01-01T16:33:20;8.07;;;2.55;;
75413;SDS011;64758;52.122;5.404;2023-01-01T16:35:48;14.02;;;3.58;;
75413;SDS011;64758;52.122;5.404;2023-01-01T16:38:15;9.45;;;2.60;;
75413;SDS011;64758;52.122;5.404;2023-01-01T16:40:41;9.43;;;3.13;;
75413;SDS011;64758;52.122;5.404;2023-01-01T16:43:13;10.35;;;3.15;;
75413;SDS011;64758;52.122;5.404;2023-01-01T16:45:41;9.48;;;2.85;;
75413;SDS011;64758;52.122;5.404;2023-01-01T16:48:08;15.50;;;4.28;;
75413;SDS011;64758;52.122;5.404;2023-01-01T16:50:35;11.55;;;3.85;;
75413;SDS011;64758;52.122;5.404;2023-01-01T16:53:03;13.50;;;6.17;;
75413;SDS011;64758;52.122;5.404;2023-01-01T16:55:29;10.77;;;4.40;;
75413;SDS011;64758;52.122;5.404;2023-01-01T16:57:56;18.35;;;7.00;;
75413;SDS011;64758;52.122;5.404;2023-01-01T17:00:42;22.05;;;7.55;;
75413;SDS011;64758;52.122;5.404;2023-01-01T17:03:09;16.38;;;6.07;;
75413;SDS011;64758;52.122;5.404;2023-01-01T17:05:35;19.00;;;7.27;;
75413;SDS011;64758;52.122;5.404;2023-01-01T17:08:09;11.63;;;5.30;;
75413;SDS011;64758;52.122;5.404;2023-01-01T17:10:35;8.23;;;3.42;;
75413;SDS011;64758;52.122;5.404;2023-01-01T17:13:02;22.77;;;7.95;;
75413;SDS011;64758;52.122;5.404;2023-01-01T17:15:29;13.15;;;3.83;;
75413;SDS011;64758;52.122;5.404;2023-01-01T17:17:56;11.07;;;2.73;;
75413;SDS011;64758;52.122;5.404;2023-01-01T17:20:24;13.02;;;4.40;;
75413;SDS011;64758;52.122;5.404;2023-01-01T17:22:51;13.02;;;3.45;;
75413;SDS011;64758;52.122;5.404;2023-01-01T17:25:18;14.98;;;5.70;;
75413;SDS011;64758;52.122;5.404;2023-01-01T17:27:44;9.70;;;3.40;;
75413;SDS011;64758;52.122;5.404;2023-01-01T17:30:11;11.40;;;3.20;;
75413;SDS011;64758;52.122;5.404;2023-01-01T17:32:39;8.35;;;2.88;;
75413;SDS011;64758;52.122;5.404;2023-01-01T17:35:06;9.05;;;2.50;;